Sheep Ranch, California
Current Conditions -  °F | °C
As of 12:55 PM on Sunday 21 Dec 2014 (Local Time) from KO22 Reporting Station
NA  
Wind Chill: 61°   Ceiling: NA
Heat Index: 61°   Visibility: 10mi
Dew Point: 55°   Wind: 7mph
Humidity: 82%   Direction: 270°W
Pressure: 30.24"   Gusts: NA
Location:  38.21°N, 120.46°W
Report Text: KO22 212055Z AUTO 27006KT 10SM 16/13 A3024 RMK AO1
Loading
Personal Weather Stations






























Interactive Weather Map New forecast layout! Learn more

10-Day Weather Forecast

Advertisements
Track Severe Weather on mobile